sensor_id;sensor_type;location;lat;lon;timestamp;P1;P2;P0
44674;PMS5003;30388;52.038;-1.478;2022-12-18T00:01:29;15;15;
44674;PMS5003;30388;52.038;-1.478;2022-12-18T00:03:58;36;30;
44674;PMS5003;30388;52.038;-1.478;2022-12-18T00:06:28;60;57;
44674;PMS5003;30388;52.038;-1.478;2022-12-18T00:08:56;13;10;
44674;PMS5003;30388;52.038;-1.478;2022-12-18T00:11:27;44;41;
44674;PMS5003;30388;52.038;-1.478;2022-12-18T00:13:57;40;36;
44674;PMS5003;30388;52.038;-1.478;2022-12-18T00:16:26;49;48;
44674;PMS5003;30388;52.038;-1.478;2022-12-18T00:18:55;78;74;
44674;PMS5003;30388;52.038;-1.478;2022-12-18T00:21:23;56;54;
44674;PMS5003;30388;52.038;-1.478;2022-12-18T00:23:50;54;51;
44674;PMS5003;30388;52.038;-1.478;2022-12-18T00:26:19;65;63;
44674;PMS5003;30388;52.038;-1.478;2022-12-18T00:28:49;51;45;
44674;PMS5003;30388;52.038;-1.478;2022-12-18T00:31:18;46;45;
44674;PMS5003;30388;52.038;-1.478;2022-12-18T00:33:47;42;41;
44674;PMS5003;30388;52.038;-1.478;2022-12-18T00:36:16;67;63;
44674;PMS5003;30388;52.038;-1.478;2022-12-18T00:38:45;91;89;
44674;PMS5003;30388;52.038;-1.478;2022-12-18T00:41:13;43;43;
44674;PMS5003;30388;52.038;-1.478;2022-12-18T00:43:42;33;33;
44674;PMS5003;30388;52.038;-1.478;2022-12-18T00:46:10;34;28;
44674;PMS5003;30388;52.038;-1.478;2022-12-18T00:48:37;42;41;
44674;PMS5003;30388;52.038;-1.478;2022-12-18T00:51:04;33;28;
44674;PMS5003;30388;52.038;-1.478;2022-12-18T00:53:32;32;32;
44674;PMS5003;30388;52.038;-1.478;2022-12-18T00:56:01;32;29;
44674;PMS5003;30388;52.038;-1.478;2022-12-18T00:58:28;33;31;
44674;PMS5003;30388;52.038;-1.478;2022-12-18T01:00:56;24;23;
44674;PMS5003;30388;52.038;-1.478;2022-12-18T01:03:23;29;26;
44674;PMS5003;30388;52.038;-1.478;2022-12-18T01:05:52;22;20;
44674;PMS5003;30388;52.038;-1.478;2022-12-18T01:08:20;11;11;
44674;PMS5003;30388;52.038;-1.478;2022-12-18T01:10:47;11;11;
44674;PMS5003;30388;52.038;-1.478;2022-12-18T01:13:14;13;11;
44674;PMS5003;30388;52.038;-1.478;2022-12-18T01:15:48;10;7;
44674;PMS5003;30388;52.038;-1.478;2022-12-18T01:18:16;11;7;
44674;PMS5003;30388;52.038;-1.478;2022-12-18T01:20:44;14;13;
44674;PMS5003;30388;52.038;-1.478;2022-12-18T01:23:11;14;10;
44674;PMS5003;30388;52.038;-1.478;2022-12-18T01:25:40;7;7;
44674;PMS5003;30388;52.038;-1.478;2022-12-18T01:28:07;10;10;
44674;PMS5003;30388;52.038;-1.478;2022-12-18T01:30:34;16;11;
44674;PMS5003;30388;52.038;-1.478;2022-12-18T01:33:02;10;10;
44674;PMS5003;30388;52.038;-1.478;2022-12-18T01:35:31;12;11;
44674;PMS5003;30388;52.038;-1.478;2022-12-18T01:37:58;19;19;
44674;PMS5003;30388;52.038;-1.478;2022-12-18T01:40:26;22;19;
44674;PMS5003;30388;52.038;-1.478;2022-12-18T01:42:52;15;12;
44674;PMS5003;30388;52.038;-1.478;2022-12-18T01:45:23;14;14;
44674;PMS5003;30388;52.038;-1.478;2022-12-18T01:47:55;11;11;
44674;PMS5003;30388;52.038;-1.478;2022-12-18T01:50:25;11;11;
44674;PMS5003;30388;52.038;-1.478;2022-12-18T01:52:58;18;14;
44674;PMS5003;30388;52.038;-1.478;2022-12-18T01:55:29;21;18;
44674;PMS5003;30388;52.038;-1.478;2022-12-18T01:58:01;19;14;
44674;PMS5003;30388;52.038;-1.478;2022-12-18T02:00:30;14;9;
44674;PMS5003;30388;52.038;-1.478;2022-12-18T02:02:57;23;14;
44674;PMS5003;30388;52.038;-1.478;2022-12-18T02:05:26;20;16;
44674;PMS5003;30388;52.038;-1.478;2022-12-18T02:08:05;22;19;
44674;PMS5003;30388;52.038;-1.478;2022-12-18T02:10:42;31;23;
44674;PMS5003;30388;52.038;-1.478;2022-12-18T02:13:19;36;27;
44674;PMS5003;30388;52.038;-1.478;2022-12-18T02:15:54;29;23;
44674;PMS5003;30388;52.038;-1.478;2022-12-18T02:18:32;18;18;
44674;PMS5003;30388;52.038;-1.478;2022-12-18T02:21:07;20;20;
44674;PMS5003;30388;52.038;-1.478;2022-12-18T02:23:47;22;15;
44674;PMS5003;30388;52.038;-1.478;2022-12-18T02:26:24;15;10;
44674;PMS5003;30388;52.038;-1.478;2022-12-18T02:28:59;26;18;
44674;PMS5003;30388;52.038;-1.478;2022-12-18T02:31:31;18;10;
44674;PMS5003;30388;52.038;-1.478;2022-12-18T02:34:04;22;19;
44674;PMS5003;30388;52.038;-1.478;2022-12-18T02:36:35;15;13;
44674;PMS5003;30388;52.038;-1.478;2022-12-18T02:39:07;23;14;
44674;PMS5003;30388;52.038;-1.478;2022-12-18T02:41:37;19;14;
44674;PMS5003;30388;52.038;-1.478;2022-12-18T02:44:07;22;17;
44674;PMS5003;30388;52.038;-1.478;2022-12-18T02:46:36;22;18;
44674;PMS5003;30388;52.038;-1.478;2022-12-18T02:49:13;25;21;
44674;PMS5003;30388;52.038;-1.478;2022-12-18T02:51:55;21;19;
44674;PMS5003;30388;52.038;-1.478;2022-12-18T02:54:37;13;10;
44674;PMS5003;30388;52.038;-1.478;2022-12-18T02:57:20;21;18;
44674;PMS5003;30388;52.038;-1.478;2022-12-18T03:00:00;23;18;
44674;PMS5003;30388;52.038;-1.478;2022-12-18T03:02:36;19;14;
44674;PMS5003;30388;52.038;-1.478;2022-12-18T03:05:10;27;22;
44674;PMS5003;30388;52.038;-1.478;2022-12-18T03:07:42;19;15;
44674;PMS5003;30388;52.038;-1.478;2022-12-18T03:10:16;13;11;
44674;PMS5003;30388;52.038;-1.478;2022-12-18T03:12:51;15;13;
44674;PMS5003;30388;52.038;-1.478;2022-12-18T03:15:25;26;18;
44674;PMS5003;30388;52.038;-1.478;2022-12-18T03:17:59;23;22;
44674;PMS5003;30388;52.038;-1.478;2022-12-18T03:20:31;31;26;
44674;PMS5003;30388;52.038;-1.478;2022-12-18T03:23:04;19;19;
44674;PMS5003;30388;52.038;-1.478;2022-12-18T03:25:35;25;22;
44674;PMS5003;30388;52.038;-1.478;2022-12-18T03:28:10;31;28;
44674;PMS5003;30388;52.038;-1.478;2022-12-18T03:30:41;21;18;
44674;PMS5003;30388;52.038;-1.478;2022-12-18T03:33:13;27;26;
44674;PMS5003;30388;52.038;-1.478;2022-12-18T03:35:45;22;21;
44674;PMS5003;30388;52.038;-1.478;2022-12-18T03:38:12;25;25;
44674;PMS5003;30388;52.038;-1.478;2022-12-18T03:40:44;21;18;
44674;PMS5003;30388;52.038;-1.478;2022-12-18T03:43:20;26;26;
44674;PMS5003;30388;52.038;-1.478;2022-12-18T03:45:57;30;30;
44674;PMS5003;30388;52.038;-1.478;2022-12-18T03:48:31;32;25;
44674;PMS5003;30388;52.038;-1.478;2022-12-18T03:51:05;45;45;
44674;PMS5003;30388;52.038;-1.478;2022-12-18T03:53:38;36;31;
44674;PMS5003;30388;52.038;-1.478;2022-12-18T03:56:10;56;53;
44674;PMS5003;30388;52.038;-1.478;2022-12-18T03:58:40;53;48;
44674;PMS5003;30388;52.038;-1.478;2022-12-18T04:01:09;42;39;
44674;PMS5003;30388;52.038;-1.478;2022-12-18T04:03:41;65;57;
44674;PMS5003;30388;52.038;-1.478;2022-12-18T04:06:11;56;48;
44674;PMS5003;30388;52.038;-1.478;2022-12-18T04:08:39;63;60;
44674;PMS5003;30388;52.038;-1.478;2022-12-18T04:11:07;64;60;
44674;PMS5003;30388;52.038;-1.478;2022-12-18T04:13:36;56;52;
44674;PMS5003;30388;52.038;-1.478;2022-12-18T04:16:04;68;64;
44674;PMS5003;30388;52.038;-1.478;2022-12-18T04:18:31;60;56;
44674;PMS5003;30388;52.038;-1.478;2022-12-18T04:20:58;64;63;
44674;PMS5003;30388;52.038;-1.478;2022-12-18T04:23:25;68;66;
44674;PMS5003;30388;52.038;-1.478;2022-12-18T04:25:52;63;61;
44674;PMS5003;30388;52.038;-1.478;2022-12-18T04:28:19;59;55;
44674;PMS5003;30388;52.038;-1.478;2022-12-18T04:30:47;51;48;
44674;PMS5003;30388;52.038;-1.478;2022-12-18T04:33:14;68;64;
44674;PMS5003;30388;52.038;-1.478;2022-12-18T04:35:44;70;64;
44674;PMS5003;30388;52.038;-1.478;2022-12-18T04:38:12;76;73;
44674;PMS5003;30388;52.038;-1.478;2022-12-18T04:40:40;78;78;
44674;PMS5003;30388;52.038;-1.478;2022-12-18T04:43:07;87;84;
44674;PMS5003;30388;52.038;-1.478;2022-12-18T04:45:34;86;84;
44674;PMS5003;30388;52.038;-1.478;2022-12-18T04:48:02;89;86;
44674;PMS5003;30388;52.038;-1.478;2022-12-18T04:50:30;75;72;
44674;PMS5003;30388;52.038;-1.478;2022-12-18T04:52:58;87;86;
44674;PMS5003;30388;52.038;-1.478;2022-12-18T04:55:26;97;92;
44674;PMS5003;30388;52.038;-1.478;2022-12-18T04:57:53;109;104;
44674;PMS5003;30388;52.038;-1.478;2022-12-18T05:00:21;81;79;
44674;PMS5003;30388;52.038;-1.478;2022-12-18T05:02:49;80;75;
44674;PMS5003;30388;52.038;-1.478;2022-12-18T05:05:16;71;66;
44674;PMS5003;30388;52.038;-1.478;2022-12-18T05:07:44;86;80;
44674;PMS5003;30388;52.038;-1.478;2022-12-18T05:10:11;53;52;
44674;PMS5003;30388;52.038;-1.478;2022-12-18T05:12:38;71;66;
44674;PMS5003;30388;52.038;-1.478;2022-12-18T05:15:06;52;50;
44674;PMS5003;30388;52.038;-1.478;2022-12-18T05:17:34;79;76;
44674;PMS5003;30388;52.038;-1.478;2022-12-18T05:20:01;67;64;
44674;PMS5003;30388;52.038;-1.478;2022-12-18T05:22:29;37;33;
44674;PMS5003;30388;52.038;-1.478;2022-12-18T05:24:56;71;66;
44674;PMS5003;30388;52.038;-1.478;2022-12-18T05:27:23;60;56;
44674;PMS5003;30388;52.038;-1.478;2022-12-18T05:29:50;29;25;
44674;PMS5003;30388;52.038;-1.478;2022-12-18T05:32:17;77;73;
44674;PMS5003;30388;52.038;-1.478;2022-12-18T05:34:44;69;63;
44674;PMS5003;30388;52.038;-1.478;2022-12-18T05:37:12;60;55;
44674;PMS5003;30388;52.038;-1.478;2022-12-18T05:39:39;42;36;
44674;PMS5003;30388;52.038;-1.478;2022-12-18T05:42:06;61;59;
44674;PMS5003;30388;52.038;-1.478;2022-12-18T05:44:33;84;77;
44674;PMS5003;30388;52.038;-1.478;2022-12-18T05:47:01;43;42;
44674;PMS5003;30388;52.038;-1.478;2022-12-18T05:49:28;198;186;
44674;PMS5003;30388;52.038;-1.478;2022-12-18T05:51:55;169;166;
44674;PMS5003;30388;52.038;-1.478;2022-12-18T05:54:22;148;139;
44674;PMS5003;30388;52.038;-1.478;2022-12-18T05:56:49;123;114;
44674;PMS5003;30388;52.038;-1.478;2022-12-18T05:59:16;140;132;
44674;PMS5003;30388;52.038;-1.478;2022-12-18T06:01:43;128;125;
44674;PMS5003;30388;52.038;-1.478;2022-12-18T06:04:10;74;67;
44674;PMS5003;30388;52.038;-1.478;2022-12-18T06:06:37;172;165;
44674;PMS5003;30388;52.038;-1.478;2022-12-18T06:09:04;132;128;
44674;PMS5003;30388;52.038;-1.478;2022-12-18T06:11:32;133;127;
44674;PMS5003;30388;52.038;-1.478;2022-12-18T06:14:00;128;128;
44674;PMS5003;30388;52.038;-1.478;2022-12-18T06:16:27;120;117;
44674;PMS5003;30388;52.038;-1.478;2022-12-18T06:18:55;108;103;
44674;PMS5003;30388;52.038;-1.478;2022-12-18T06:21:22;124;122;
44674;PMS5003;30388;52.038;-1.478;2022-12-18T06:23:49;126;121;
44674;PMS5003;30388;52.038;-1.478;2022-12-18T06:26:16;122;113;
44674;PMS5003;30388;52.038;-1.478;2022-12-18T06:28:43;142;140;
44674;PMS5003;30388;52.038;-1.478;2022-12-18T06:31:10;100;94;
44674;PMS5003;30388;52.038;-1.478;2022-12-18T06:33:38;84;83;
44674;PMS5003;30388;52.038;-1.478;2022-12-18T06:36:07;105;102;
44674;PMS5003;30388;52.038;-1.478;2022-12-18T06:38:36;112;104;
44674;PMS5003;30388;52.038;-1.478;2022-12-18T06:41:06;145;140;
44674;PMS5003;30388;52.038;-1.478;2022-12-18T06:43:34;95;95;
44674;PMS5003;30388;52.038;-1.478;2022-12-18T06:46:02;72;71;
44674;PMS5003;30388;52.038;-1.478;2022-12-18T06:48:30;58;57;
44674;PMS5003;30388;52.038;-1.478;2022-12-18T06:50:58;103;98;
44674;PMS5003;30388;52.038;-1.478;2022-12-18T06:53:25;100;93;
44674;PMS5003;30388;52.038;-1.478;2022-12-18T06:55:58;97;96;
44674;PMS5003;30388;52.038;-1.478;2022-12-18T06:58:26;91;84;
44674;PMS5003;30388;52.038;-1.478;2022-12-18T07:00:53;61;54;
44674;PMS5003;30388;52.038;-1.478;2022-12-18T07:03:26;61;57;
44674;PMS5003;30388;52.038;-1.478;2022-12-18T07:05:53;98;93;
44674;PMS5003;30388;52.038;-1.478;2022-12-18T07:08:20;59;58;
44674;PMS5003;30388;52.038;-1.478;2022-12-18T07:10:47;83;77;
44674;PMS5003;30388;52.038;-1.478;2022-12-18T07:13:14;72;71;
44674;PMS5003;30388;52.038;-1.478;2022-12-18T07:15:42;94;92;
44674;PMS5003;30388;52.038;-1.478;2022-12-18T07:18:10;67;61;
44674;PMS5003;30388;52.038;-1.478;2022-12-18T07:20:38;36;35;
44674;PMS5003;30388;52.038;-1.478;2022-12-18T07:23:04;45;44;
44674;PMS5003;30388;52.038;-1.478;2022-12-18T07:25:33;43;41;
44674;PMS5003;30388;52.038;-1.478;2022-12-18T07:28:00;25;25;
44674;PMS5003;30388;52.038;-1.478;2022-12-18T07:30:27;65;61;
44674;PMS5003;30388;52.038;-1.478;2022-12-18T07:32:54;25;23;
44674;PMS5003;30388;52.038;-1.478;2022-12-18T07:35:22;34;34;
44674;PMS5003;30388;52.038;-1.478;2022-12-18T07:37:48;288;285;
44674;PMS5003;30388;52.038;-1.478;2022-12-18T07:40:16;262;262;
44674;PMS5003;30388;52.038;-1.478;2022-12-18T07:42:43;348;346;
44674;PMS5003;30388;52.038;-1.478;2022-12-18T07:45:09;319;319;
44674;PMS5003;30388;52.038;-1.478;2022-12-18T07:47:36;377;377;
44674;PMS5003;30388;52.038;-1.478;2022-12-18T07:50:04;259;259;
44674;PMS5003;30388;52.038;-1.478;2022-12-18T07:52:31;329;329;
44674;PMS5003;30388;52.038;-1.478;2022-12-18T07:54:58;409;403;
44674;PMS5003;30388;52.038;-1.478;2022-12-18T07:57:25;48;48;
44674;PMS5003;30388;52.038;-1.478;2022-12-18T07:59:52;48;42;
44674;PMS5003;30388;52.038;-1.478;2022-12-18T08:02:19;55;49;
44674;PMS5003;30388;52.038;-1.478;2022-12-18T08:04:46;62;56;
44674;PMS5003;30388;52.038;-1.478;2022-12-18T08:07:13;84;82;
44674;PMS5003;30388;52.038;-1.478;2022-12-18T08:09:41;58;54;
44674;PMS5003;30388;52.038;-1.478;2022-12-18T08:12:08;78;73;
44674;PMS5003;30388;52.038;-1.478;2022-12-18T08:14:35;89;84;
44674;PMS5003;30388;52.038;-1.478;2022-12-18T08:17:02;55;52;
44674;PMS5003;30388;52.038;-1.478;2022-12-18T08:19:30;49;45;
44674;PMS5003;30388;52.038;-1.478;2022-12-18T08:21:57;46;45;
44674;PMS5003;30388;52.038;-1.478;2022-12-18T08:24:25;57;51;
44674;PMS5003;30388;52.038;-1.478;2022-12-18T08:26:51;46;45;
44674;PMS5003;30388;52.038;-1.478;2022-12-18T08:29:18;36;35;
44674;PMS5003;30388;52.038;-1.478;2022-12-18T08:31:45;44;41;
44674;PMS5003;30388;52.038;-1.478;2022-12-18T08:34:12;42;40;
44674;PMS5003;30388;52.038;-1.478;2022-12-18T08:36:39;39;26;
44674;PMS5003;30388;52.038;-1.478;2022-12-18T08:39:06;49;45;
44674;PMS5003;30388;52.038;-1.478;2022-12-18T08:41:33;52;42;
44674;PMS5003;30388;52.038;-1.478;2022-12-18T08:44:00;46;45;
44674;PMS5003;30388;52.038;-1.478;2022-12-18T08:46:30;38;33;
44674;PMS5003;30388;52.038;-1.478;2022-12-18T08:49:00;43;38;
44674;PMS5003;30388;52.038;-1.478;2022-12-18T08:51:27;67;66;
44674;PMS5003;30388;52.038;-1.478;2022-12-18T08:53:54;51;48;
44674;PMS5003;30388;52.038;-1.478;2022-12-18T08:56:21;49;46;
44674;PMS5003;30388;52.038;-1.478;2022-12-18T08:58:50;52;49;
44674;PMS5003;30388;52.038;-1.478;2022-12-18T09:01:19;43;41;
44674;PMS5003;30388;52.038;-1.478;2022-12-18T09:03:47;53;48;
44674;PMS5003;30388;52.038;-1.478;2022-12-18T09:06:14;57;55;
44674;PMS5003;30388;52.038;-1.478;2022-12-18T09:08:42;65;63;
44674;PMS5003;30388;52.038;-1.478;2022-12-18T09:11:11;68;66;
44674;PMS5003;30388;52.038;-1.478;2022-12-18T09:13:41;90;84;
44674;PMS5003;30388;52.038;-1.478;2022-12-18T09:16:08;91;90;
44674;PMS5003;30388;52.038;-1.478;2022-12-18T09:18:36;109;107;
44674;PMS5003;30388;52.038;-1.478;2022-12-18T09:21:11;100;99;
44674;PMS5003;30388;52.038;-1.478;2022-12-18T09:23:40;103;100;
44674;PMS5003;30388;52.038;-1.478;2022-12-18T09:26:07;104;103;
44674;PMS5003;30388;52.038;-1.478;2022-12-18T09:28:35;127;126;
44674;PMS5003;30388;52.038;-1.478;2022-12-18T09:31:03;84;83;
44674;PMS5003;30388;52.038;-1.478;2022-12-18T09:33:32;111;108;
44674;PMS5003;30388;52.038;-1.478;2022-12-18T09:36:00;103;103;
44674;PMS5003;30388;52.038;-1.478;2022-12-18T09:38:29;101;98;
44674;PMS5003;30388;52.038;-1.478;2022-12-18T09:40:57;91;89;
44674;PMS5003;30388;52.038;-1.478;2022-12-18T09:43:30;70;67;
44674;PMS5003;30388;52.038;-1.478;2022-12-18T09:46:06;74;74;
44674;PMS5003;30388;52.038;-1.478;2022-12-18T09:48:37;72;67;
44674;PMS5003;30388;52.038;-1.478;2022-12-18T09:51:10;85;81;
44674;PMS5003;30388;52.038;-1.478;2022-12-18T09:53:42;81;73;
44674;PMS5003;30388;52.038;-1.478;2022-12-18T09:56:18;85;82;
44674;PMS5003;30388;52.038;-1.478;2022-12-18T09:58:47;104;100;
44674;PMS5003;30388;52.038;-1.478;2022-12-18T10:01:20;81;77;
44674;PMS5003;30388;52.038;-1.478;2022-12-18T10:03:48;86;81;
44674;PMS5003;30388;52.038;-1.478;2022-12-18T10:06:19;83;82;
44674;PMS5003;30388;52.038;-1.478;2022-12-18T10:08:53;93;87;
44674;PMS5003;30388;52.038;-1.478;2022-12-18T10:11:32;67;67;
44674;PMS5003;30388;52.038;-1.478;2022-12-18T10:14:09;110;107;
44674;PMS5003;30388;52.038;-1.478;2022-12-18T10:16:47;83;83;
44674;PMS5003;30388;52.038;-1.478;2022-12-18T10:19:29;112;110;
44674;PMS5003;30388;52.038;-1.478;2022-12-18T10:22:03;111;110;
44674;PMS5003;30388;52.038;-1.478;2022-12-18T10:24:42;91;89;
44674;PMS5003;30388;52.038;-1.478;2022-12-18T10:27:18;129;128;
44674;PMS5003;30388;52.038;-1.478;2022-12-18T10:29:48;110;102;
44674;PMS5003;30388;52.038;-1.478;2022-12-18T10:32:17;107;105;
44674;PMS5003;30388;52.038;-1.478;2022-12-18T10:34:47;105;99;
44674;PMS5003;30388;52.038;-1.478;2022-12-18T10:37:16;113;110;
44674;PMS5003;30388;52.038;-1.478;2022-12-18T10:39:45;97;97;
44674;PMS5003;30388;52.038;-1.478;2022-12-18T10:42:16;90;90;
44674;PMS5003;30388;52.038;-1.478;2022-12-18T10:44:45;110;107;
44674;PMS5003;30388;52.038;-1.478;2022-12-18T10:47:27;109;105;
44674;PMS5003;30388;52.038;-1.478;2022-12-18T10:49:54;106;105;
44674;PMS5003;30388;52.038;-1.478;2022-12-18T10:52:21;95;95;
44674;PMS5003;30388;52.038;-1.478;2022-12-18T10:54:51;116;114;
44674;PMS5003;30388;52.038;-1.478;2022-12-18T10:57:29;94;92;
44674;PMS5003;30388;52.038;-1.478;2022-12-18T11:00:00;91;91;
44674;PMS5003;30388;52.038;-1.478;2022-12-18T11:02:48;82;79;
44674;PMS5003;30388;52.038;-1.478;2022-12-18T11:05:23;112;110;
44674;PMS5003;30388;52.038;-1.478;2022-12-18T11:07:55;79;76;
44674;PMS5003;30388;52.038;-1.478;2022-12-18T11:10:26;84;79;
44674;PMS5003;30388;52.038;-1.478;2022-12-18T11:13:08;95;95;
44674;PMS5003;30388;52.038;-1.478;2022-12-18T11:15:37;72;70;
44674;PMS5003;30388;52.038;-1.478;2022-12-18T11:18:14;79;78;
44674;PMS5003;30388;52.038;-1.478;2022-12-18T11:20:49;78;78;
44674;PMS5003;30388;52.038;-1.478;2022-12-18T11:23:18;109;102;
44674;PMS5003;30388;52.038;-1.478;2022-12-18T11:25:50;86;85;
44674;PMS5003;30388;52.038;-1.478;2022-12-18T11:28:28;94;92;
44674;PMS5003;30388;52.038;-1.478;2022-12-18T11:31:12;116;114;
44674;PMS5003;30388;52.038;-1.478;2022-12-18T11:33:44;106;104;
44674;PMS5003;30388;52.038;-1.478;2022-12-18T11:36:17;107;105;
44674;PMS5003;30388;52.038;-1.478;2022-12-18T11:38:46;80;80;
44674;PMS5003;30388;52.038;-1.478;2022-12-18T11:41:19;97;97;
44674;PMS5003;30388;52.038;-1.478;2022-12-18T11:43:52;102;102;
44674;PMS5003;30388;52.038;-1.478;2022-12-18T11:46:26;131;129;
44674;PMS5003;30388;52.038;-1.478;2022-12-18T11:49:01;117;112;
44674;PMS5003;30388;52.038;-1.478;2022-12-18T11:51:37;114;107;
44674;PMS5003;30388;52.038;-1.478;2022-12-18T11:54:17;110;101;
44674;PMS5003;30388;52.038;-1.478;2022-12-18T11:56:46;89;84;
44674;PMS5003;30388;52.038;-1.478;2022-12-18T11:59:19;88;86;
44674;PMS5003;30388;52.038;-1.478;2022-12-18T12:01:58;115;109;
44674;PMS5003;30388;52.038;-1.478;2022-12-18T12:04:52;104;98;
44674;PMS5003;30388;52.038;-1.478;2022-12-18T12:07:33;99;95;
44674;PMS5003;30388;52.038;-1.478;2022-12-18T12:10:13;98;94;
44674;PMS5003;30388;52.038;-1.478;2022-12-18T12:12:57;109;105;
44674;PMS5003;30388;52.038;-1.478;2022-12-18T12:15:34;129;128;
44674;PMS5003;30388;52.038;-1.478;2022-12-18T12:18:15;101;99;
44674;PMS5003;30388;52.038;-1.478;2022-12-18T12:20:52;109;103;
44674;PMS5003;30388;52.038;-1.478;2022-12-18T12:23:29;112;111;
44674;PMS5003;30388;52.038;-1.478;2022-12-18T12:26:06;101;95;
44674;PMS5003;30388;52.038;-1.478;2022-12-18T12:28:42;109;106;
44674;PMS5003;30388;52.038;-1.478;2022-12-18T12:31:22;115;107;
44674;PMS5003;30388;52.038;-1.478;2022-12-18T12:34:01;120;115;
44674;PMS5003;30388;52.038;-1.478;2022-12-18T12:36:40;100;100;
44674;PMS5003;30388;52.038;-1.478;2022-12-18T12:39:18;101;95;
44674;PMS5003;30388;52.038;-1.478;2022-12-18T12:41:48;136;135;
44674;PMS5003;30388;52.038;-1.478;2022-12-18T12:44:16;112;109;
44674;PMS5003;30388;52.038;-1.478;2022-12-18T12:46:48;96;96;
44674;PMS5003;30388;52.038;-1.478;2022-12-18T12:49:19;123;115;
44674;PMS5003;30388;52.038;-1.478;2022-12-18T12:51:52;128;123;
44674;PMS5003;30388;52.038;-1.478;2022-12-18T12:54:26;133;129;
44674;PMS5003;30388;52.038;-1.478;2022-12-18T12:56:56;134;131;
44674;PMS5003;30388;52.038;-1.478;2022-12-18T12:59:28;121;111;
44674;PMS5003;30388;52.038;-1.478;2022-12-18T13:02:04;124;117;
44674;PMS5003;30388;52.038;-1.478;2022-12-18T13:04:42;126;120;
44674;PMS5003;30388;52.038;-1.478;2022-12-18T13:07:19;126;119;
44674;PMS5003;30388;52.038;-1.478;2022-12-18T13:10:58;142;135;
44674;PMS5003;30388;52.038;-1.478;2022-12-18T13:13:27;123;108;
44674;PMS5003;30388;52.038;-1.478;2022-12-18T13:16:18;119;117;
44674;PMS5003;30388;52.038;-1.478;2022-12-18T13:18:48;134;129;
44674;PMS5003;30388;52.038;-1.478;2022-12-18T13:21:18;129;129;
44674;PMS5003;30388;52.038;-1.478;2022-12-18T13:23:49;137;131;
44674;PMS5003;30388;52.038;-1.478;2022-12-18T13:26:33;110;109;
44674;PMS5003;30388;52.038;-1.478;2022-12-18T13:29:00;130;128;
44674;PMS5003;30388;52.038;-1.478;2022-12-18T13:32:01;118;117;
44674;PMS5003;30388;52.038;-1.478;2022-12-18T13:34:28;98;88;
44674;PMS5003;30388;52.038;-1.478;2022-12-18T13:36:57;125;122;
44674;PMS5003;30388;52.038;-1.478;2022-12-18T13:40:35;126;117;
44674;PMS5003;30388;52.038;-1.478;2022-12-18T13:43:23;110;105;
44674;PMS5003;30388;52.038;-1.478;2022-12-18T13:46:29;128;125;
44674;PMS5003;30388;52.038;-1.478;2022-12-18T13:49:16;131;127;
44674;PMS5003;30388;52.038;-1.478;2022-12-18T13:51:50;68;62;
44674;PMS5003;30388;52.038;-1.478;2022-12-18T13:54:19;130;130;
44674;PMS5003;30388;52.038;-1.478;2022-12-18T13:56:51;114;109;
44674;PMS5003;30388;52.038;-1.478;2022-12-18T13:59:19;131;126;
44674;PMS5003;30388;52.038;-1.478;2022-12-18T14:01:50;83;79;
44674;PMS5003;30388;52.038;-1.478;2022-12-18T14:04:21;99;99;
44674;PMS5003;30388;52.038;-1.478;2022-12-18T14:06:52;101;99;
44674;PMS5003;30388;52.038;-1.478;2022-12-18T14:09:24;153;142;
44674;PMS5003;30388;52.038;-1.478;2022-12-18T14:11:53;127;126;
44674;PMS5003;30388;52.038;-1.478;2022-12-18T14:14:21;96;96;
44674;PMS5003;30388;52.038;-1.478;2022-12-18T14:16:48;107;102;
44674;PMS5003;30388;52.038;-1.478;2022-12-18T14:19:17;131;128;
44674;PMS5003;30388;52.038;-1.478;2022-12-18T14:21:46;76;74;
44674;PMS5003;30388;52.038;-1.478;2022-12-18T14:24:16;98;97;
44674;PMS5003;30388;52.038;-1.478;2022-12-18T14:26:45;112;112;
44674;PMS5003;30388;52.038;-1.478;2022-12-18T14:29:18;129;126;
44674;PMS5003;30388;52.038;-1.478;2022-12-18T14:32:07;165;165;
44674;PMS5003;30388;52.038;-1.478;2022-12-18T14:34:36;122;118;
44674;PMS5003;30388;52.038;-1.478;2022-12-18T14:37:03;145;142;
44674;PMS5003;30388;52.038;-1.478;2022-12-18T14:39:31;145;144;
44674;PMS5003;30388;52.038;-1.478;2022-12-18T14:41:58;138;136;
44674;PMS5003;30388;52.038;-1.478;2022-12-18T14:44:25;115;115;
44674;PMS5003;30388;52.038;-1.478;2022-12-18T14:46:52;125;125;
44674;PMS5003;30388;52.038;-1.478;2022-12-18T14:49:20;128;126;
44674;PMS5003;30388;52.038;-1.478;2022-12-18T14:51:52;135;135;
44674;PMS5003;30388;52.038;-1.478;2022-12-18T14:54:22;130;127;
44674;PMS5003;30388;52.038;-1.478;2022-12-18T14:56:51;134;129;
44674;PMS5003;30388;52.038;-1.478;2022-12-18T14:59:26;134;130;
44674;PMS5003;30388;52.038;-1.478;2022-12-18T15:01:57;241;238;
44674;PMS5003;30388;52.038;-1.478;2022-12-18T15:04:29;232;232;
44674;PMS5003;30388;52.038;-1.478;2022-12-18T15:07:08;298;298;
44674;PMS5003;30388;52.038;-1.478;2022-12-18T15:09:39;331;331;
44674;PMS5003;30388;52.038;-1.478;2022-12-18T15:12:17;194;187;
44674;PMS5003;30388;52.038;-1.478;2022-12-18T15:14:52;170;161;
44674;PMS5003;30388;52.038;-1.478;2022-12-18T15:17:20;192;188;
44674;PMS5003;30388;52.038;-1.478;2022-12-18T15:19:49;200;195;
44674;PMS5003;30388;52.038;-1.478;2022-12-18T15:22:20;163;156;
44674;PMS5003;30388;52.038;-1.478;2022-12-18T15:24:50;192;192;
44674;PMS5003;30388;52.038;-1.478;2022-12-18T15:27:20;175;166;
44674;PMS5003;30388;52.038;-1.478;2022-12-18T15:30:23;178;170;
44674;PMS5003;30388;52.038;-1.478;2022-12-18T15:32:51;171;161;
44674;PMS5003;30388;52.038;-1.478;2022-12-18T15:35:42;172;163;
44674;PMS5003;30388;52.038;-1.478;2022-12-18T15:38:09;180;168;
44674;PMS5003;30388;52.038;-1.478;2022-12-18T15:40:36;171;164;
44674;PMS5003;30388;52.038;-1.478;2022-12-18T15:43:04;189;181;
44674;PMS5003;30388;52.038;-1.478;2022-12-18T15:45:34;185;181;
44674;PMS5003;30388;52.038;-1.478;2022-12-18T15:48:02;175;172;
44674;PMS5003;30388;52.038;-1.478;2022-12-18T15:50:31;140;133;
44674;PMS5003;30388;52.038;-1.478;2022-12-18T15:52:58;140;130;
44674;PMS5003;30388;52.038;-1.478;2022-12-18T15:55:26;170;170;
44674;PMS5003;30388;52.038;-1.478;2022-12-18T15:57:53;276;276;
44674;PMS5003;30388;52.038;-1.478;2022-12-18T16:00:21;156;153;
44674;PMS5003;30388;52.038;-1.478;2022-12-18T16:02:48;299;296;
44674;PMS5003;30388;52.038;-1.478;2022-12-18T16:05:16;139;134;
44674;PMS5003;30388;52.038;-1.478;2022-12-18T16:07:44;143;132;
44674;PMS5003;30388;52.038;-1.478;2022-12-18T16:10:12;211;206;
44674;PMS5003;30388;52.038;-1.478;2022-12-18T16:12:39;229;225;
44674;PMS5003;30388;52.038;-1.478;2022-12-18T16:15:10;219;217;